sensor_id;sensor_type;location;lat;lon;timestamp;temperature;humidity
10300;DHT22;5195;48.562;9.192;2022-10-22T00:01:04;17.00;66.70
10300;DHT22;5195;48.562;9.192;2022-10-22T00:03:40;16.90;66.90
10300;DHT22;5195;48.562;9.192;2022-10-22T00:06:15;16.60;67.90
10300;DHT22;5195;48.562;9.192;2022-10-22T00:08:51;16.80;67.80
10300;DHT22;5195;48.562;9.192;2022-10-22T00:11:26;16.70;67.80
10300;DHT22;5195;48.562;9.192;2022-10-22T00:14:02;16.40;68.40
10300;DHT22;5195;48.562;9.192;2022-10-22T00:16:38;16.60;68.40
10300;DHT22;5195;48.562;9.192;2022-10-22T00:19:14;16.70;67.90
10300;DHT22;5195;48.562;9.192;2022-10-22T00:21:49;16.70;67.90
10300;DHT22;5195;48.562;9.192;2022-10-22T00:24:26;17.00;66.80
10300;DHT22;5195;48.562;9.192;2022-10-22T00:27:02;17.20;65.70
10300;DHT22;5195;48.562;9.192;2022-10-22T00:29:37;17.30;65.00
10300;DHT22;5195;48.562;9.192;2022-10-22T00:32:14;17.60;63.60
10300;DHT22;5195;48.562;9.192;2022-10-22T00:34:49;17.60;63.60
10300;DHT22;5195;48.562;9.192;2022-10-22T00:37:25;17.30;64.30
10300;DHT22;5195;48.562;9.192;2022-10-22T00:40:00;16.90;65.60
10300;DHT22;5195;48.562;9.192;2022-10-22T00:42:36;16.60;66.70
10300;DHT22;5195;48.562;9.192;2022-10-22T00:45:18;16.70;66.50
10300;DHT22;5195;48.562;9.192;2022-10-22T00:47:59;16.60;66.50
10300;DHT22;5195;48.562;9.192;2022-10-22T00:51:02;16.40;67.40
10300;DHT22;5195;48.562;9.192;2022-10-22T00:53:35;16.50;67.30
10300;DHT22;5195;48.562;9.192;2022-10-22T00:56:10;16.90;65.70
10300;DHT22;5195;48.562;9.192;2022-10-22T00:58:52;16.70;65.80
10300;DHT22;5195;48.562;9.192;2022-10-22T01:01:21;16.80;65.60
10300;DHT22;5195;48.562;9.192;2022-10-22T01:03:56;17.00;64.80
10300;DHT22;5195;48.562;9.192;2022-10-22T01:06:32;16.80;65.10
10300;DHT22;5195;48.562;9.192;2022-10-22T01:17:57;16.20;67.50
10300;DHT22;5195;48.562;9.192;2022-10-22T01:29:49;16.80;65.20
10300;DHT22;5195;48.562;9.192;2022-10-22T01:32:24;17.00;64.70
10300;DHT22;5195;48.562;9.192;2022-10-22T01:35:00;17.00;64.60
10300;DHT22;5195;48.562;9.192;2022-10-22T01:37:40;16.90;64.70
10300;DHT22;5195;48.562;9.192;2022-10-22T01:40:13;16.90;64.70
10300;DHT22;5195;48.562;9.192;2022-10-22T01:42:58;16.90;65.10
10300;DHT22;5195;48.562;9.192;2022-10-22T01:45:55;16.40;67.20
10300;DHT22;5195;48.562;9.192;2022-10-22T01:51:38;16.40;66.50
10300;DHT22;5195;48.562;9.192;2022-10-22T01:54:27;16.70;65.30
10300;DHT22;5195;48.562;9.192;2022-10-22T02:00:08;16.70;65.00
10300;DHT22;5195;48.562;9.192;2022-10-22T02:02:48;16.70;64.80
10300;DHT22;5195;48.562;9.192;2022-10-22T02:08:29;16.50;64.70
10300;DHT22;5195;48.562;9.192;2022-10-22T02:11:05;16.70;63.80
10300;DHT22;5195;48.562;9.192;2022-10-22T02:13:42;16.60;64.90
10300;DHT22;5195;48.562;9.192;2022-10-22T02:16:49;16.20;65.30
10300;DHT22;5195;48.562;9.192;2022-10-22T02:19:05;16.00;66.60
10300;DHT22;5195;48.562;9.192;2022-10-22T02:21:38;15.80;67.50
10300;DHT22;5195;48.562;9.192;2022-10-22T02:24:13;15.90;66.30
10300;DHT22;5195;48.562;9.192;2022-10-22T02:30:00;15.80;66.90
10300;DHT22;5195;48.562;9.192;2022-10-22T02:32:34;15.60;67.80
10300;DHT22;5195;48.562;9.192;2022-10-22T02:35:28;15.40;68.70
10300;DHT22;5195;48.562;9.192;2022-10-22T02:38:04;15.30;69.30
10300;DHT22;5195;48.562;9.192;2022-10-22T02:40:39;15.20;69.70
10300;DHT22;5195;48.562;9.192;2022-10-22T02:43:16;15.50;68.50
10300;DHT22;5195;48.562;9.192;2022-10-22T02:45:51;15.60;68.10
10300;DHT22;5195;48.562;9.192;2022-10-22T02:48:26;15.50;68.60
10300;DHT22;5195;48.562;9.192;2022-10-22T02:51:02;15.80;67.80
10300;DHT22;5195;48.562;9.192;2022-10-22T02:53:39;15.70;67.70
10300;DHT22;5195;48.562;9.192;2022-10-22T02:56:15;15.60;68.40
10300;DHT22;5195;48.562;9.192;2022-10-22T02:58:51;16.20;66.60
10300;DHT22;5195;48.562;9.192;2022-10-22T03:01:27;16.10;66.50
10300;DHT22;5195;48.562;9.192;2022-10-22T03:04:03;16.20;66.50
10300;DHT22;5195;48.562;9.192;2022-10-22T03:06:39;16.40;65.40
10300;DHT22;5195;48.562;9.192;2022-10-22T03:09:16;16.40;65.40
10300;DHT22;5195;48.562;9.192;2022-10-22T03:11:52;16.30;65.70
10300;DHT22;5195;48.562;9.192;2022-10-22T03:14:27;16.00;66.70
10300;DHT22;5195;48.562;9.192;2022-10-22T03:17:03;16.10;66.50
10300;DHT22;5195;48.562;9.192;2022-10-22T03:19:39;16.10;67.10
10300;DHT22;5195;48.562;9.192;2022-10-22T03:22:21;16.10;66.40
10300;DHT22;5195;48.562;9.192;2022-10-22T03:24:57;16.20;65.70
10300;DHT22;5195;48.562;9.192;2022-10-22T03:27:32;16.20;65.70
10300;DHT22;5195;48.562;9.192;2022-10-22T03:30:07;16.30;65.50
10300;DHT22;5195;48.562;9.192;2022-10-22T03:32:44;16.20;65.90
10300;DHT22;5195;48.562;9.192;2022-10-22T03:35:20;15.90;66.90
10300;DHT22;5195;48.562;9.192;2022-10-22T03:37:55;15.70;67.90
10300;DHT22;5195;48.562;9.192;2022-10-22T03:40:31;15.80;67.10
10300;DHT22;5195;48.562;9.192;2022-10-22T03:43:08;16.20;65.90
10300;DHT22;5195;48.562;9.192;2022-10-22T03:45:43;16.50;64.80
10300;DHT22;5195;48.562;9.192;2022-10-22T03:48:19;16.30;65.00
10300;DHT22;5195;48.562;9.192;2022-10-22T03:50:56;16.40;64.80
10300;DHT22;5195;48.562;9.192;2022-10-22T03:53:31;16.20;65.30
10300;DHT22;5195;48.562;9.192;2022-10-22T03:56:09;16.00;66.20
10300;DHT22;5195;48.562;9.192;2022-10-22T03:58:44;15.80;67.10
10300;DHT22;5195;48.562;9.192;2022-10-22T04:01:20;15.60;67.70
10300;DHT22;5195;48.562;9.192;2022-10-22T04:03:56;15.40;68.30
10300;DHT22;5195;48.562;9.192;2022-10-22T04:06:31;15.70;66.70
10300;DHT22;5195;48.562;9.192;2022-10-22T04:09:08;15.70;66.60
10300;DHT22;5195;48.562;9.192;2022-10-22T04:11:43;15.90;65.40
10300;DHT22;5195;48.562;9.192;2022-10-22T04:14:20;15.80;65.60
10300;DHT22;5195;48.562;9.192;2022-10-22T04:16:56;15.60;66.30
10300;DHT22;5195;48.562;9.192;2022-10-22T04:19:31;15.80;65.50
10300;DHT22;5195;48.562;9.192;2022-10-22T04:22:08;15.80;65.70
10300;DHT22;5195;48.562;9.192;2022-10-22T04:24:45;15.40;67.20
10300;DHT22;5195;48.562;9.192;2022-10-22T04:27:20;15.40;67.20
10300;DHT22;5195;48.562;9.192;2022-10-22T04:29:56;15.60;66.00
10300;DHT22;5195;48.562;9.192;2022-10-22T04:32:32;15.60;66.00
10300;DHT22;5195;48.562;9.192;2022-10-22T04:35:07;15.40;67.10
10300;DHT22;5195;48.562;9.192;2022-10-22T04:37:45;16.00;64.10
10300;DHT22;5195;48.562;9.192;2022-10-22T04:40:21;16.00;64.10
10300;DHT22;5195;48.562;9.192;2022-10-22T04:42:56;16.30;63.10
10300;DHT22;5195;48.562;9.192;2022-10-22T04:45:32;16.50;62.10
10300;DHT22;5195;48.562;9.192;2022-10-22T04:48:08;16.30;62.50
10300;DHT22;5195;48.562;9.192;2022-10-22T04:50:44;16.30;62.50
10300;DHT22;5195;48.562;9.192;2022-10-22T04:53:19;16.50;61.90
10300;DHT22;5195;48.562;9.192;2022-10-22T04:56:04;16.30;62.40
10300;DHT22;5195;48.562;9.192;2022-10-22T04:58:32;16.00;63.40
10300;DHT22;5195;48.562;9.192;2022-10-22T05:01:08;16.10;62.80
10300;DHT22;5195;48.562;9.192;2022-10-22T05:03:43;16.30;62.10
10300;DHT22;5195;48.562;9.192;2022-10-22T05:06:19;16.60;61.30
10300;DHT22;5195;48.562;9.192;2022-10-22T05:08:55;16.80;60.50
10300;DHT22;5195;48.562;9.192;2022-10-22T05:11:31;16.60;61.10
10300;DHT22;5195;48.562;9.192;2022-10-22T05:14:05;16.50;61.20
10300;DHT22;5195;48.562;9.192;2022-10-22T05:16:42;16.40;62.20
10300;DHT22;5195;48.562;9.192;2022-10-22T05:19:27;16.40;61.80
10300;DHT22;5195;48.562;9.192;2022-10-22T05:22:00;16.20;62.30
10300;DHT22;5195;48.562;9.192;2022-10-22T05:24:35;16.30;61.70
10300;DHT22;5195;48.562;9.192;2022-10-22T05:27:11;16.20;62.10
10300;DHT22;5195;48.562;9.192;2022-10-22T05:29:46;16.30;61.80
10300;DHT22;5195;48.562;9.192;2022-10-22T05:32:23;15.90;63.20
10300;DHT22;5195;48.562;9.192;2022-10-22T05:34:58;15.90;63.20
10300;DHT22;5195;48.562;9.192;2022-10-22T05:37:34;16.00;63.00
10300;DHT22;5195;48.562;9.192;2022-10-22T05:40:11;16.30;62.30
10300;DHT22;5195;48.562;9.192;2022-10-22T05:42:53;16.20;62.70
10300;DHT22;5195;48.562;9.192;2022-10-22T05:45:28;16.30;62.50
10300;DHT22;5195;48.562;9.192;2022-10-22T05:48:08;16.30;62.20
10300;DHT22;5195;48.562;9.192;2022-10-22T05:50:43;16.30;62.20
10300;DHT22;5195;48.562;9.192;2022-10-22T05:53:19;16.00;63.30
10300;DHT22;5195;48.562;9.192;2022-10-22T05:55:54;15.80;64.40
10300;DHT22;5195;48.562;9.192;2022-10-22T05:58:30;15.90;64.90
10300;DHT22;5195;48.562;9.192;2022-10-22T06:01:10;15.90;65.30
10300;DHT22;5195;48.562;9.192;2022-10-22T06:03:44;15.70;65.40
10300;DHT22;5195;48.562;9.192;2022-10-22T06:06:21;15.50;66.00
10300;DHT22;5195;48.562;9.192;2022-10-22T06:08:59;15.70;65.10
10300;DHT22;5195;48.562;9.192;2022-10-22T06:11:34;15.70;65.20
10300;DHT22;5195;48.562;9.192;2022-10-22T06:14:09;15.50;65.80
10300;DHT22;5195;48.562;9.192;2022-10-22T06:16:45;15.80;65.20
10300;DHT22;5195;48.562;9.192;2022-10-22T06:19:21;15.70;65.10
10300;DHT22;5195;48.562;9.192;2022-10-22T06:21:56;15.60;65.80
10300;DHT22;5195;48.562;9.192;2022-10-22T06:24:33;15.40;66.50
10300;DHT22;5195;48.562;9.192;2022-10-22T06:27:08;15.70;65.30
10300;DHT22;5195;48.562;9.192;2022-10-22T06:29:46;16.10;64.40
10300;DHT22;5195;48.562;9.192;2022-10-22T06:32:22;16.40;63.10
10300;DHT22;5195;48.562;9.192;2022-10-22T06:34:59;16.00;64.30
10300;DHT22;5195;48.562;9.192;2022-10-22T06:37:36;16.00;64.30
10300;DHT22;5195;48.562;9.192;2022-10-22T06:40:12;16.20;63.80
10300;DHT22;5195;48.562;9.192;2022-10-22T06:42:47;16.50;62.50
10300;DHT22;5195;48.562;9.192;2022-10-22T06:45:23;16.40;62.80
10300;DHT22;5195;48.562;9.192;2022-10-22T06:47:58;16.50;62.60
10300;DHT22;5195;48.562;9.192;2022-10-22T06:50:34;16.40;63.10
10300;DHT22;5195;48.562;9.192;2022-10-22T06:53:09;16.20;64.00
10300;DHT22;5195;48.562;9.192;2022-10-22T06:58:16;15.80;65.30
10300;DHT22;5195;48.562;9.192;2022-10-22T07:00:41;15.80;65.90
10300;DHT22;5195;48.562;9.192;2022-10-22T07:03:10;16.00;65.30
10300;DHT22;5195;48.562;9.192;2022-10-22T07:05:34;16.00;65.30
10300;DHT22;5195;48.562;9.192;2022-10-22T07:08:00;16.20;65.60
10300;DHT22;5195;48.562;9.192;2022-10-22T07:10:26;16.30;65.60
10300;DHT22;5195;48.562;9.192;2022-10-22T07:12:52;16.40;64.60
10300;DHT22;5195;48.562;9.192;2022-10-22T07:15:20;16.70;63.60
10300;DHT22;5195;48.562;9.192;2022-10-22T07:17:45;17.00;62.90
10300;DHT22;5195;48.562;9.192;2022-10-22T07:20:11;16.80;63.20
10300;DHT22;5195;48.562;9.192;2022-10-22T07:22:37;16.90;65.50
10300;DHT22;5195;48.562;9.192;2022-10-22T07:25:03;17.20;64.70
10300;DHT22;5195;48.562;9.192;2022-10-22T07:27:28;17.20;64.80
10300;DHT22;5195;48.562;9.192;2022-10-22T07:29:54;17.30;63.50
10300;DHT22;5195;48.562;9.192;2022-10-22T07:32:19;17.30;63.60
10300;DHT22;5195;48.562;9.192;2022-10-22T07:34:45;17.00;63.90
10300;DHT22;5195;48.562;9.192;2022-10-22T07:37:10;16.80;64.80
10300;DHT22;5195;48.562;9.192;2022-10-22T07:39:37;17.10;63.30
10300;DHT22;5195;48.562;9.192;2022-10-22T07:42:03;17.50;61.90
10300;DHT22;5195;48.562;9.192;2022-10-22T07:44:28;17.50;62.10
10300;DHT22;5195;48.562;9.192;2022-10-22T07:46:54;17.70;61.20
10300;DHT22;5195;48.562;9.192;2022-10-22T07:49:19;17.70;61.70
10300;DHT22;5195;48.562;9.192;2022-10-22T07:51:45;17.90;60.80
10300;DHT22;5195;48.562;9.192;2022-10-22T07:54:11;17.90;61.30
10300;DHT22;5195;48.562;9.192;2022-10-22T07:56:38;18.10;60.70
10300;DHT22;5195;48.562;9.192;2022-10-22T07:59:03;18.50;59.70
10300;DHT22;5195;48.562;9.192;2022-10-22T08:01:29;18.70;58.80
10300;DHT22;5195;48.562;9.192;2022-10-22T08:03:54;18.70;59.50
10300;DHT22;5195;48.562;9.192;2022-10-22T08:06:20;18.40;60.30
10300;DHT22;5195;48.562;9.192;2022-10-22T08:08:46;18.50;59.50
10300;DHT22;5195;48.562;9.192;2022-10-22T08:11:11;18.50;60.20
10300;DHT22;5195;48.562;9.192;2022-10-22T08:13:37;18.80;60.00
10300;DHT22;5195;48.562;9.192;2022-10-22T08:16:04;18.80;60.00
10300;DHT22;5195;48.562;9.192;2022-10-22T08:18:30;19.00;59.10
10300;DHT22;5195;48.562;9.192;2022-10-22T08:20:56;19.40;58.40
10300;DHT22;5195;48.562;9.192;2022-10-22T08:23:25;19.50;58.90
10300;DHT22;5195;48.562;9.192;2022-10-22T08:26:29;19.50;59.30
10300;DHT22;5195;48.562;9.192;2022-10-22T08:28:57;19.70;58.00
10300;DHT22;5195;48.562;9.192;2022-10-22T08:34:41;20.00;57.50
10300;DHT22;5195;48.562;9.192;2022-10-22T08:37:17;19.90;58.50
10300;DHT22;5195;48.562;9.192;2022-10-22T08:39:53;20.10;57.30
10300;DHT22;5195;48.562;9.192;2022-10-22T08:51:19;20.80;56.70
10300;DHT22;5195;48.562;9.192;2022-10-22T08:56:39;20.60;58.30
10300;DHT22;5195;48.562;9.192;2022-10-22T08:59:28;20.60;58.90
10300;DHT22;5195;48.562;9.192;2022-10-22T09:01:56;20.60;59.20
10300;DHT22;5195;48.562;9.192;2022-10-22T09:04:38;20.80;55.60
10300;DHT22;5195;48.562;9.192;2022-10-22T09:07:12;20.90;56.20
10300;DHT22;5195;48.562;9.192;2022-10-22T09:09:48;20.80;56.80
10300;DHT22;5195;48.562;9.192;2022-10-22T09:12:23;20.60;57.30
10300;DHT22;5195;48.562;9.192;2022-10-22T09:15:02;20.90;55.60
10300;DHT22;5195;48.562;9.192;2022-10-22T09:20:45;21.30;56.10
10300;DHT22;5195;48.562;9.192;2022-10-22T09:26:12;21.50;55.80
10300;DHT22;5195;48.562;9.192;2022-10-22T09:28:53;21.30;56.60
10300;DHT22;5195;48.562;9.192;2022-10-22T09:31:31;21.40;54.80
10300;DHT22;5195;48.562;9.192;2022-10-22T09:34:06;21.40;54.80
10300;DHT22;5195;48.562;9.192;2022-10-22T09:36:41;21.40;55.40
10300;DHT22;5195;48.562;9.192;2022-10-22T09:39:25;21.30;56.10
10300;DHT22;5195;48.562;9.192;2022-10-22T09:41:59;21.60;55.80
10300;DHT22;5195;48.562;9.192;2022-10-22T09:44:35;22.00;55.10
10300;DHT22;5195;48.562;9.192;2022-10-22T09:55:32;22.70;53.00
10300;DHT22;5195;48.562;9.192;2022-10-22T09:58:12;22.70;52.80
10300;DHT22;5195;48.562;9.192;2022-10-22T10:00:58;22.70;52.80
10300;DHT22;5195;48.562;9.192;2022-10-22T10:03:33;22.70;52.20
10300;DHT22;5195;48.562;9.192;2022-10-22T10:06:09;23.00;52.60
10300;DHT22;5195;48.562;9.192;2022-10-22T10:08:47;22.90;53.30
10300;DHT22;5195;48.562;9.192;2022-10-22T10:25:47;22.30;53.00
10300;DHT22;5195;48.562;9.192;2022-10-22T10:31:35;22.50;52.70
10300;DHT22;5195;48.562;9.192;2022-10-22T10:34:16;22.80;51.80
10300;DHT22;5195;48.562;9.192;2022-10-22T10:37:15;23.10;50.70
10300;DHT22;5195;48.562;9.192;2022-10-22T10:40:06;23.00;51.60
10300;DHT22;5195;48.562;9.192;2022-10-22T10:42:50;22.80;52.00
10300;DHT22;5195;48.562;9.192;2022-10-22T10:48:52;22.70;52.20
10300;DHT22;5195;48.562;9.192;2022-10-22T10:54:42;22.40;53.60
10300;DHT22;5195;48.562;9.192;2022-10-22T11:00:33;22.60;52.50
10300;DHT22;5195;48.562;9.192;2022-10-22T11:03:31;22.70;52.50
10300;DHT22;5195;48.562;9.192;2022-10-22T11:06:03;22.50;52.80
10300;DHT22;5195;48.562;9.192;2022-10-22T11:13:56;23.40;49.20
10300;DHT22;5195;48.562;9.192;2022-10-22T11:16:58;23.30;50.00
10300;DHT22;5195;48.562;9.192;2022-10-22T11:19:33;23.30;48.70
10300;DHT22;5195;48.562;9.192;2022-10-22T11:24:48;23.60;47.50
10300;DHT22;5195;48.562;9.192;2022-10-22T11:27:32;23.70;47.00
10300;DHT22;5195;48.562;9.192;2022-10-22T11:30:20;23.80;46.50
10300;DHT22;5195;48.562;9.192;2022-10-22T11:32:56;23.60;48.20
10300;DHT22;5195;48.562;9.192;2022-10-22T11:35:31;23.50;47.20
10300;DHT22;5195;48.562;9.192;2022-10-22T11:38:06;23.60;47.40
10300;DHT22;5195;48.562;9.192;2022-10-22T11:40:44;23.50;48.50
10300;DHT22;5195;48.562;9.192;2022-10-22T11:51:50;23.50;46.30
10300;DHT22;5195;48.562;9.192;2022-10-22T11:54:39;23.60;46.10
10300;DHT22;5195;48.562;9.192;2022-10-22T11:59:51;23.50;47.70
10300;DHT22;5195;48.562;9.192;2022-10-22T12:02:44;23.50;47.30
10300;DHT22;5195;48.562;9.192;2022-10-22T12:08:20;22.90;48.40
10300;DHT22;5195;48.562;9.192;2022-10-22T12:10:34;22.70;49.10
10300;DHT22;5195;48.562;9.192;2022-10-22T12:13:13;22.50;49.40
10300;DHT22;5195;48.562;9.192;2022-10-22T12:15:48;22.70;47.70
10300;DHT22;5195;48.562;9.192;2022-10-22T12:18:26;23.00;47.40
10300;DHT22;5195;48.562;9.192;2022-10-22T12:21:01;23.00;48.40
10300;DHT22;5195;48.562;9.192;2022-10-22T12:23:37;22.90;49.10
10300;DHT22;5195;48.562;9.192;2022-10-22T12:26:22;22.90;46.90
10300;DHT22;5195;48.562;9.192;2022-10-22T12:28:57;22.90;47.70
10300;DHT22;5195;48.562;9.192;2022-10-22T12:31:37;22.70;48.80
10300;DHT22;5195;48.562;9.192;2022-10-22T12:34:12;22.90;47.10
10300;DHT22;5195;48.562;9.192;2022-10-22T12:36:48;22.90;47.70
10300;DHT22;5195;48.562;9.192;2022-10-22T12:39:26;22.80;48.10
10300;DHT22;5195;48.562;9.192;2022-10-22T12:42:03;22.60;48.50
10300;DHT22;5195;48.562;9.192;2022-10-22T12:44:39;22.50;49.00
10300;DHT22;5195;48.562;9.192;2022-10-22T12:47:15;22.50;49.80
10300;DHT22;5195;48.562;9.192;2022-10-22T12:49:51;22.70;46.90
10300;DHT22;5195;48.562;9.192;2022-10-22T12:52:26;22.70;46.90
10300;DHT22;5195;48.562;9.192;2022-10-22T12:55:03;22.80;47.50
10300;DHT22;5195;48.562;9.192;2022-10-22T12:57:38;22.90;47.50
10300;DHT22;5195;48.562;9.192;2022-10-22T13:00:26;22.80;47.80
10300;DHT22;5195;48.562;9.192;2022-10-22T13:03:04;22.70;47.80
10300;DHT22;5195;48.562;9.192;2022-10-22T13:05:35;23.00;44.70
10300;DHT22;5195;48.562;9.192;2022-10-22T13:08:19;23.10;45.80
10300;DHT22;5195;48.562;9.192;2022-10-22T13:10:53;23.00;46.60
10300;DHT22;5195;48.562;9.192;2022-10-22T13:13:29;22.80;46.40
10300;DHT22;5195;48.562;9.192;2022-10-22T13:16:22;22.90;43.50
10300;DHT22;5195;48.562;9.192;2022-10-22T13:18:57;22.80;43.40
10300;DHT22;5195;48.562;9.192;2022-10-22T13:21:36;23.20;43.00
10300;DHT22;5195;48.562;9.192;2022-10-22T13:24:19;23.50;43.70
10300;DHT22;5195;48.562;9.192;2022-10-22T13:26:55;23.40;45.00
10300;DHT22;5195;48.562;9.192;2022-10-22T13:29:31;23.60;43.10
10300;DHT22;5195;48.562;9.192;2022-10-22T13:35:02;23.50;44.60
10300;DHT22;5195;48.562;9.192;2022-10-22T13:37:38;23.50;44.20
10300;DHT22;5195;48.562;9.192;2022-10-22T13:40:14;23.70;43.30
10300;DHT22;5195;48.562;9.192;2022-10-22T13:42:49;23.50;44.30
10300;DHT22;5195;48.562;9.192;2022-10-22T13:45:25;23.20;45.30
10300;DHT22;5195;48.562;9.192;2022-10-22T13:48:00;22.90;45.80
10300;DHT22;5195;48.562;9.192;2022-10-22T13:50:36;23.10;45.00
10300;DHT22;5195;48.562;9.192;2022-10-22T13:53:23;23.30;44.40
10300;DHT22;5195;48.562;9.192;2022-10-22T13:55:54;22.80;45.60
10300;DHT22;5195;48.562;9.192;2022-10-22T13:58:30;22.80;45.50
10300;DHT22;5195;48.562;9.192;2022-10-22T14:01:08;22.50;46.30
10300;DHT22;5195;48.562;9.192;2022-10-22T14:03:41;22.20;47.10
10300;DHT22;5195;48.562;9.192;2022-10-22T14:06:18;22.40;46.40
10300;DHT22;5195;48.562;9.192;2022-10-22T14:08:58;22.30;46.30
10300;DHT22;5195;48.562;9.192;2022-10-22T14:11:33;22.70;45.20
10300;DHT22;5195;48.562;9.192;2022-10-22T14:14:08;22.80;45.90
10300;DHT22;5195;48.562;9.192;2022-10-22T14:16:44;22.90;44.40
10300;DHT22;5195;48.562;9.192;2022-10-22T14:19:20;22.80;45.10
10300;DHT22;5195;48.562;9.192;2022-10-22T14:21:55;22.60;45.80
10300;DHT22;5195;48.562;9.192;2022-10-22T14:24:31;22.40;46.50
10300;DHT22;5195;48.562;9.192;2022-10-22T14:27:07;22.30;47.00
10300;DHT22;5195;48.562;9.192;2022-10-22T14:29:45;22.10;47.10
10300;DHT22;5195;48.562;9.192;2022-10-22T14:32:20;22.00;47.30
10300;DHT22;5195;48.562;9.192;2022-10-22T14:34:56;22.20;44.20
10300;DHT22;5195;48.562;9.192;2022-10-22T14:37:32;22.30;45.40
10300;DHT22;5195;48.562;9.192;2022-10-22T14:40:08;22.20;46.10
10300;DHT22;5195;48.562;9.192;2022-10-22T14:42:44;22.30;44.20
10300;DHT22;5195;48.562;9.192;2022-10-22T14:45:24;22.40;45.00
10300;DHT22;5195;48.562;9.192;2022-10-22T14:47:57;22.20;45.60
10300;DHT22;5195;48.562;9.192;2022-10-22T14:50:34;22.00;46.20
10300;DHT22;5195;48.562;9.192;2022-10-22T14:53:10;21.80;46.70
10300;DHT22;5195;48.562;9.192;2022-10-22T14:55:45;21.70;47.10
10300;DHT22;5195;48.562;9.192;2022-10-22T14:58:21;21.60;47.10
10300;DHT22;5195;48.562;9.192;2022-10-22T15:00:56;21.90;44.50
10300;DHT22;5195;48.562;9.192;2022-10-22T15:03:33;22.30;43.30
10300;DHT22;5195;48.562;9.192;2022-10-22T15:06:08;22.70;43.40
10300;DHT22;5195;48.562;9.192;2022-10-22T15:08:44;22.90;42.60
10300;DHT22;5195;48.562;9.192;2022-10-22T15:11:20;23.10;42.00
10300;DHT22;5195;48.562;9.192;2022-10-22T15:13:55;22.90;43.20
10300;DHT22;5195;48.562;9.192;2022-10-22T15:16:31;22.60;44.00
10300;DHT22;5195;48.562;9.192;2022-10-22T15:19:06;22.30;44.60
10300;DHT22;5195;48.562;9.192;2022-10-22T15:21:43;22.20;42.30
10300;DHT22;5195;48.562;9.192;2022-10-22T15:24:18;22.20;42.30
10300;DHT22;5195;48.562;9.192;2022-10-22T15:26:55;22.50;41.70
10300;DHT22;5195;48.562;9.192;2022-10-22T15:29:31;22.80;41.60
10300;DHT22;5195;48.562;9.192;2022-10-22T15:32:07;22.60;42.50
10300;DHT22;5195;48.562;9.192;2022-10-22T15:34:47;22.30;43.40
10300;DHT22;5195;48.562;9.192;2022-10-22T15:37:23;22.00;44.10
10300;DHT22;5195;48.562;9.192;2022-10-22T15:39:58;21.80;44.80
10300;DHT22;5195;48.562;9.192;2022-10-22T15:42:34;21.60;45.50
10300;DHT22;5195;48.562;9.192;2022-10-22T15:45:11;21.50;46.30
10300;DHT22;5195;48.562;9.192;2022-10-22T15:47:46;21.60;45.30
10300;DHT22;5195;48.562;9.192;2022-10-22T15:50:22;21.50;45.90
10300;DHT22;5195;48.562;9.192;2022-10-22T15:52:58;21.30;46.40
10300;DHT22;5195;48.562;9.192;2022-10-22T15:55:34;20.80;48.30
10300;DHT22;5195;48.562;9.192;2022-10-22T15:58:09;20.80;47.60
10300;DHT22;5195;48.562;9.192;2022-10-22T16:00:46;20.70;48.30
10300;DHT22;5195;48.562;9.192;2022-10-22T16:03:22;20.50;48.60
10300;DHT22;5195;48.562;9.192;2022-10-22T16:05:58;21.20;47.50
10300;DHT22;5195;48.562;9.192;2022-10-22T16:08:34;21.20;47.50
10300;DHT22;5195;48.562;9.192;2022-10-22T16:11:09;21.10;47.90
10300;DHT22;5195;48.562;9.192;2022-10-22T16:13:45;20.90;48.60
10300;DHT22;5195;48.562;9.192;2022-10-22T16:16:21;20.60;49.10
10300;DHT22;5195;48.562;9.192;2022-10-22T16:18:57;20.60;48.50
10300;DHT22;5195;48.562;9.192;2022-10-22T16:21:32;20.60;48.50
10300;DHT22;5195;48.562;9.192;2022-10-22T16:24:08;20.60;49.10
10300;DHT22;5195;48.562;9.192;2022-10-22T16:26:43;20.40;49.60
10300;DHT22;5195;48.562;9.192;2022-10-22T16:29:19;20.20;49.90
10300;DHT22;5195;48.562;9.192;2022-10-22T16:31:55;20.40;49.00
10300;DHT22;5195;48.562;9.192;2022-10-22T16:34:32;20.50;48.90
10300;DHT22;5195;48.562;9.192;2022-10-22T16:37:08;20.50;48.90
10300;DHT22;5195;48.562;9.192;2022-10-22T16:39:43;20.40;49.30
10300;DHT22;5195;48.562;9.192;2022-10-22T16:42:19;20.50;48.50
10300;DHT22;5195;48.562;9.192;2022-10-22T16:44:54;20.70;48.00
10300;DHT22;5195;48.562;9.192;2022-10-22T16:47:31;20.60;48.90
10300;DHT22;5195;48.562;9.192;2022-10-22T16:50:09;20.60;48.30
10300;DHT22;5195;48.562;9.192;2022-10-22T16:52:45;20.60;48.00
10300;DHT22;5195;48.562;9.192;2022-10-22T16:55:22;20.80;47.80
10300;DHT22;5195;48.562;9.192;2022-10-22T16:57:58;21.00;47.00
10300;DHT22;5195;48.562;9.192;2022-10-22T17:00:34;21.00;47.10
10300;DHT22;5195;48.562;9.192;2022-10-22T17:03:09;20.60;48.10
10300;DHT22;5195;48.562;9.192;2022-10-22T17:05:46;20.20;49.10
10300;DHT22;5195;48.562;9.192;2022-10-22T17:08:21;19.80;49.90
10300;DHT22;5195;48.562;9.192;2022-10-22T17:11:04;19.40;51.60
10300;DHT22;5195;48.562;9.192;2022-10-22T17:13:36;19.20;51.40
10300;DHT22;5195;48.562;9.192;2022-10-22T17:16:13;19.20;51.30
10300;DHT22;5195;48.562;9.192;2022-10-22T17:18:48;19.40;50.80
10300;DHT22;5195;48.562;9.192;2022-10-22T17:21:23;19.30;50.90
10300;DHT22;5195;48.562;9.192;2022-10-22T17:23:59;19.00;51.40
10300;DHT22;5195;48.562;9.192;2022-10-22T17:26:36;18.80;52.00
10300;DHT22;5195;48.562;9.192;2022-10-22T17:29:11;19.00;51.60
10300;DHT22;5195;48.562;9.192;2022-10-22T17:31:47;19.00;51.90
10300;DHT22;5195;48.562;9.192;2022-10-22T17:34:22;18.70;52.20
10300;DHT22;5195;48.562;9.192;2022-10-22T17:36:59;19.20;51.40
10300;DHT22;5195;48.562;9.192;2022-10-22T17:39:36;19.20;51.30
10300;DHT22;5195;48.562;9.192;2022-10-22T17:42:12;18.70;52.20
10300;DHT22;5195;48.562;9.192;2022-10-22T17:44:48;18.70;52.20
10300;DHT22;5195;48.562;9.192;2022-10-22T17:47:23;18.40;52.60
10300;DHT22;5195;48.562;9.192;2022-10-22T17:49:59;18.20;53.00
10300;DHT22;5195;48.562;9.192;2022-10-22T17:52:34;18.40;52.50
10300;DHT22;5195;48.562;9.192;2022-10-22T17:55:11;18.80;51.90
10300;DHT22;5195;48.562;9.192;2022-10-22T17:57:47;18.80;52.10
10300;DHT22;5195;48.562;9.192;2022-10-22T18:00:23;18.90;51.60
10300;DHT22;5195;48.562;9.192;2022-10-22T18:02:59;18.90;51.70
10300;DHT22;5195;48.562;9.192;2022-10-22T18:05:34;18.70;52.20
10300;DHT22;5195;48.562;9.192;2022-10-22T18:08:10;18.50;52.70
10300;DHT22;5195;48.562;9.192;2022-10-22T18:10:47;18.30;53.00
10300;DHT22;5195;48.562;9.192;2022-10-22T18:13:23;18.20;53.30
10300;DHT22;5195;48.562;9.192;2022-10-22T18:15:58;18.00;53.40
10300;DHT22;5195;48.562;9.192;2022-10-22T18:18:35;18.30;52.30
10300;DHT22;5195;48.562;9.192;2022-10-22T18:21:11;18.80;51.60
10300;DHT22;5195;48.562;9.192;2022-10-22T18:23:46;19.10;50.50
10300;DHT22;5195;48.562;9.192;2022-10-22T18:26:22;18.90;50.80
10300;DHT22;5195;48.562;9.192;2022-10-22T18:28:57;18.60;51.60
10300;DHT22;5195;48.562;9.192;2022-10-22T18:31:34;19.00;50.50
10300;DHT22;5195;48.562;9.192;2022-10-22T18:34:12;19.00;50.50